Time;durP1;ratioP1;P1;durP2;ratioP2;P2;SDS_P1;SDS_P2;PMS_P1;PMS_P2;Temp;Humidity;BMP_temperature;BMP_pressure;BME280_temperature;BME280_humidity;BME280_pressure;Samples;Min_cycle;Max_cycle;Signal;HPM_P1;HPM_P2
2023/03/25 00:00:21;;;;;;;2.07;1.00;;;8.30;99.90;;;;;;5055639;28;20241;-84
2023/03/25 00:02:50;;;;;;;4.80;1.10;;;8.40;99.90;;;;;;5057414;28;20180;-85
2023/03/25 00:05:18;;;;;;;2.03;1.20;;;8.40;99.90;;;;;;5059556;28;20206;-83
2023/03/25 00:07:47;;;;;;;3.37;1.10;;;8.40;99.90;;;;;;5058344;28;20194;-84
2023/03/25 00:10:13;;;;;;;1.80;1.17;;;8.60;99.90;;;;;;5058082;28;20185;-83
2023/03/25 00:12:39;;;;;;;2.47;1.13;;;8.60;99.90;;;;;;5060971;28;20194;-83
2023/03/25 00:15:07;;;;;;;2.80;1.03;;;8.70;99.90;;;;;;5060385;28;20644;-84
2023/03/25 00:17:35;;;;;;;2.33;1.50;;;8.70;99.90;;;;;;5058665;28;20202;-83
2023/03/25 00:20:03;;;;;;;2.10;1.50;;;8.80;99.90;;;;;;5059803;28;20177;-84
2023/03/25 00:22:29;;;;;;;2.63;1.70;;;8.90;99.90;;;;;;5059263;28;20179;-84
2023/03/25 00:24:55;;;;;;;2.13;1.30;;;8.90;99.90;;;;;;5058806;28;20275;-84
2023/03/25 00:27:20;;;;;;;2.30;1.50;;;8.90;99.90;;;;;;5061393;28;20201;-85
2023/03/25 00:29:46;;;;;;;1.97;1.60;;;8.90;99.90;;;;;;5060209;28;20177;-85
2023/03/25 00:32:14;;;;;;;3.90;2.20;;;8.90;99.90;;;;;;5060717;28;20190;-84
2023/03/25 00:34:46;;;;;;;2.23;1.87;;;8.80;99.90;;;;;;5059475;28;20173;-84
2023/03/25 00:37:16;;;;;;;5.77;2.13;;;8.70;99.90;;;;;;5061204;28;20185;-84
2023/03/25 00:39:42;;;;;;;2.50;1.30;;;8.60;99.90;;;;;;5059554;28;20534;-84
2023/03/25 00:42:10;;;;;;;5.13;2.80;;;8.60;99.90;;;;;;5060374;28;20178;-85
2023/03/25 00:44:35;;;;;;;6.67;3.00;;;8.50;99.90;;;;;;5059495;28;20327;-84
2023/03/25 00:47:01;;;;;;;1.97;1.00;;;8.50;99.90;;;;;;5060940;28;20198;-84
2023/03/25 00:49:27;;;;;;;4.53;2.50;;;8.50;99.90;;;;;;5060161;28;20221;-84
2023/03/25 00:51:54;;;;;;;1.10;1.00;;;8.40;99.90;;;;;;5062162;28;20169;-84
2023/03/25 00:54:21;;;;;;;2.20;0.87;;;8.30;99.90;;;;;;5060898;28;20176;-83
2023/03/25 00:56:48;;;;;;;1.53;0.70;;;8.30;99.90;;;;;;5051756;28;20170;-84
2023/03/25 00:59:14;;;;;;;1.43;0.80;;;8.30;99.90;;;;;;5053186;28;20551;-83
2023/03/25 01:01:39;;;;;;;2.90;0.90;;;8.30;99.90;;;;;;5044523;28;20229;-84
2023/03/25 01:04:11;;;;;;;2.23;0.80;;;8.30;99.90;;;;;;5039848;28;20635;-84
2023/03/25 01:06:42;;;;;;;1.50;0.80;;;8.30;99.90;;;;;;5033636;28;20258;-83
2023/03/25 01:09:09;;;;;;;1.30;0.87;;;8.20;99.90;;;;;;5048359;28;20178;-83
2023/03/25 01:11:37;;;;;;;2.00;0.90;;;8.20;99.90;;;;;;5051021;28;20205;-84
2023/03/25 01:14:15;;;;;;;2.83;1.10;;;8.20;99.90;;;;;;5036895;28;20266;-84
2023/03/25 01:16:41;;;;;;;1.47;0.90;;;8.20;99.90;;;;;;5036726;28;20229;-83
2023/03/25 01:19:08;;;;;;;0.87;0.70;;;8.20;99.90;;;;;;5052387;28;20185;-83
2023/03/25 01:21:35;;;;;;;0.70;0.70;;;8.10;99.90;;;;;;5036591;28;20182;-84
2023/03/25 01:24:01;;;;;;;1.30;0.80;;;8.10;99.90;;;;;;5037001;28;20232;-84
2023/03/25 01:26:27;;;;;;;1.47;0.90;;;8.10;99.90;;;;;;5036639;28;20345;-84
2023/03/25 01:28:52;;;;;;;1.20;0.80;;;8.10;99.90;;;;;;5035166;28;20190;-84
2023/03/25 01:31:18;;;;;;;1.10;0.80;;;8.10;99.90;;;;;;5034566;28;20200;-84
2023/03/25 01:33:44;;;;;;;1.80;0.73;;;8.00;99.90;;;;;;5036997;28;20646;-84
2023/03/25 01:36:11;;;;;;;1.87;0.70;;;8.00;99.90;;;;;;5036519;28;20172;-84
2023/03/25 01:38:38;;;;;;;0.73;0.60;;;8.00;99.90;;;;;;5036797;28;20275;-83
2023/03/25 01:41:05;;;;;;;0.73;0.70;;;8.00;99.90;;;;;;5051764;28;20186;-84
2023/03/25 01:43:32;;;;;;;0.73;0.70;;;8.00;99.90;;;;;;5035025;28;20296;-84
2023/03/25 01:45:58;;;;;;;0.93;0.80;;;8.00;99.90;;;;;;5036838;28;20269;-84
2023/03/25 01:48:38;;;;;;;0.60;0.60;;;8.00;99.90;;;;;;5051417;28;20243;-84
2023/03/25 01:51:26;;;;;;;1.20;0.70;;;8.00;99.90;;;;;;5035140;28;20633;-84
2023/03/25 01:53:52;;;;;;;0.80;0.60;;;8.00;99.90;;;;;;5052029;28;20667;-84
2023/03/25 01:56:22;;;;;;;3.00;0.83;;;8.00;99.90;;;;;;5052689;28;20179;-83
2023/03/25 01:58:51;;;;;;;0.80;0.80;;;8.00;99.90;;;;;;5052509;28;20198;-83
2023/03/25 02:01:20;;;;;;;1.43;1.00;;;8.00;99.90;;;;;;5037177;28;20267;-84
2023/03/25 02:03:49;;;;;;;1.63;0.90;;;8.00;99.90;;;;;;5036117;28;20198;-84
2023/03/25 02:06:23;;;;;;;1.17;0.90;;;8.00;99.90;;;;;;5037147;28;20174;-84
2023/03/25 02:08:52;;;;;;;1.10;0.90;;;8.00;99.90;;;;;;5052203;28;20200;-84
2023/03/25 02:11:18;;;;;;;1.17;0.60;;;8.00;99.90;;;;;;5037077;28;20236;-83
2023/03/25 02:13:43;;;;;;;0.90;0.70;;;7.90;99.90;;;;;;5037267;28;20182;-83
2023/03/25 02:16:15;;;;;;;2.07;1.00;;;7.80;99.90;;;;;;5035347;28;20178;-84
2023/03/25 02:18:48;;;;;;;1.43;1.00;;;7.80;99.90;;;;;;5037285;28;20191;-84
2023/03/25 02:21:17;;;;;;;1.47;0.70;;;7.70;99.90;;;;;;5051613;28;20179;-83
2023/03/25 02:24:12;;;;;;;0.73;0.73;;;7.60;99.90;;;;;;5035097;28;20341;-84
2023/03/25 02:27:25;;;;;;;0.83;0.60;;;7.60;99.90;;;;;;5037674;28;20633;-83
2023/03/25 02:30:29;;;;;;;1.90;0.83;;;7.70;99.90;;;;;;5036456;28;20190;-82
2023/03/25 02:33:13;;;;;;;1.17;0.70;;;7.60;99.90;;;;;;5025278;28;20185;-83
2023/03/25 02:36:16;;;;;;;0.80;0.80;;;7.60;99.90;;;;;;5037919;28;20181;-83
2023/03/25 02:39:01;;;;;;;1.60;1.03;;;7.60;99.90;;;;;;5035584;28;20205;-84
2023/03/25 02:41:43;;;;;;;1.70;0.90;;;7.40;99.90;;;;;;5051991;28;20200;-83
2023/03/25 02:44:37;;;;;;;2.53;1.10;;;7.40;99.90;;;;;;5037041;28;20182;-84
2023/03/25 02:49:42;;;;;;;1.13;0.90;;;7.40;99.90;;;;;;5074436;22;20593;-82
2023/03/25 02:52:16;;;;;;;0.80;0.80;;;7.30;99.90;;;;;;5036521;28;20168;-84
2023/03/25 02:54:43;;;;;;;1.07;0.80;;;7.30;99.90;;;;;;5054167;28;20576;-84
2023/03/25 02:57:13;;;;;;;1.80;0.87;;;7.20;99.90;;;;;;5036720;28;20203;-84
2023/03/25 02:59:39;;;;;;;1.10;0.70;;;7.30;99.90;;;;;;5033721;28;20174;-84
2023/03/25 03:02:10;;;;;;;1.67;0.80;;;7.20;99.90;;;;;;5016239;28;20208;-84
2023/03/25 03:04:53;;;;;;;1.73;0.80;;;7.20;99.90;;;;;;5034359;28;20181;-84
2023/03/25 03:07:29;;;;;;;1.53;1.10;;;7.20;99.90;;;;;;5016182;28;20272;-84
2023/03/25 03:10:25;;;;;;;1.27;0.70;;;7.10;99.90;;;;;;5015988;28;20191;-84
2023/03/25 03:13:15;;;;;;;1.27;0.70;;;7.10;99.90;;;;;;5016529;28;20201;-83
2023/03/25 03:15:59;;;;;;;2.27;1.13;;;7.10;99.90;;;;;;5016188;28;20184;-84
2023/03/25 03:18:36;;;;;;;1.03;0.60;;;7.10;99.90;;;;;;5033816;28;20279;-84
2023/03/25 03:21:22;;;;;;;1.30;0.80;;;7.10;99.90;;;;;;5015734;28;20191;-83
2023/03/25 03:23:53;;;;;;;2.17;1.33;;;7.10;99.90;;;;;;5015981;28;20181;-84
2023/03/25 03:26:40;;;;;;;1.37;0.80;;;7.10;99.90;;;;;;5033591;28;20177;-85
2023/03/25 03:29:30;;;;;;;1.67;0.80;;;7.10;99.90;;;;;;5015656;28;20287;-84
2023/03/25 03:32:12;;;;;;;0.97;0.77;;;7.10;99.90;;;;;;5033168;28;20182;-84
2023/03/25 03:34:48;;;;;;;2.90;0.97;;;7.20;99.90;;;;;;5032396;28;20255;-85
2023/03/25 03:37:21;;;;;;;1.10;0.97;;;7.20;99.90;;;;;;5033521;28;20165;-84
2023/03/25 03:39:48;;;;;;;1.33;1.00;;;7.30;99.90;;;;;;5032902;28;20264;-84
2023/03/25 03:42:27;;;;;;;3.13;1.10;;;7.30;99.90;;;;;;5015630;28;20260;-84
2023/03/25 03:44:59;;;;;;;1.43;1.10;;;7.30;99.90;;;;;;5015431;28;20173;-84
2023/03/25 03:47:30;;;;;;;2.37;1.47;;;7.30;99.90;;;;;;5015537;28;20188;-84
2023/03/25 03:50:00;;;;;;;1.50;1.10;;;7.30;99.90;;;;;;5014847;28;20672;-85
2023/03/25 03:53:03;;;;;;;2.30;1.00;;;7.20;99.90;;;;;;5015272;28;20643;-84
2023/03/25 03:55:52;;;;;;;1.63;0.93;;;7.20;99.90;;;;;;5033465;28;20601;-84
2023/03/25 03:58:28;;;;;;;1.60;1.13;;;7.20;99.90;;;;;;5015175;28;20244;-84
2023/03/25 04:01:10;;;;;;;3.63;1.10;;;7.20;99.90;;;;;;5014812;28;20177;-84
2023/03/25 04:03:47;;;;;;;2.10;0.90;;;7.20;99.90;;;;;;5032910;28;20196;-84
2023/03/25 04:06:25;;;;;;;2.83;1.20;;;7.30;99.90;;;;;;5015179;28;20206;-85
2023/03/25 04:08:59;;;;;;;3.50;1.20;;;7.30;99.90;;;;;;5032595;28;20197;-84
2023/03/25 04:11:34;;;;;;;1.97;1.27;;;7.30;99.90;;;;;;5015055;28;20183;-84
2023/03/25 04:14:02;;;;;;;3.47;1.30;;;7.30;99.90;;;;;;5015165;28;20204;-84
2023/03/25 04:16:27;;;;;;;2.73;1.40;;;7.30;99.90;;;;;;5021901;28;20174;-84
2023/03/25 04:18:54;;;;;;;3.87;1.60;;;7.20;99.90;;;;;;5034926;28;20195;-85
2023/03/25 04:21:20;;;;;;;3.97;1.63;;;7.20;99.90;;;;;;5029278;28;20266;-85
2023/03/25 04:23:46;;;;;;;3.60;1.70;;;7.20;99.90;;;;;;5028456;28;20261;-85
2023/03/25 04:26:12;;;;;;;2.93;1.50;;;7.20;99.90;;;;;;5032541;28;20265;-84
2023/03/25 04:28:43;;;;;;;2.53;1.50;;;7.20;99.90;;;;;;5032564;28;20205;-84
2023/03/25 04:31:14;;;;;;;4.57;1.50;;;7.20;99.90;;;;;;5014281;28;20269;-84
2023/03/25 04:33:47;;;;;;;2.50;1.90;;;7.20;99.90;;;;;;5032423;28;20201;-86
2023/03/25 04:36:13;;;;;;;2.00;1.70;;;7.10;99.90;;;;;;5014970;28;20201;-84
2023/03/25 04:38:39;;;;;;;2.70;1.50;;;7.20;99.90;;;;;;5014919;28;20197;-84
2023/03/25 04:41:06;;;;;;;2.97;1.40;;;7.20;99.90;;;;;;5014334;28;20570;-84
2023/03/25 04:43:32;;;;;;;3.13;1.20;;;7.20;99.90;;;;;;5014791;28;20192;-84
2023/03/25 04:45:58;;;;;;;2.30;1.40;;;7.20;99.90;;;;;;5031977;28;20173;-84
2023/03/25 04:48:30;;;;;;;3.50;1.60;;;7.20;99.90;;;;;;5014383;28;20313;-84
2023/03/25 04:50:57;;;;;;;3.13;1.50;;;7.30;99.90;;;;;;5014438;28;20181;-84
2023/03/25 04:53:24;;;;;;;1.77;1.30;;;7.20;99.90;;;;;;5014908;28;20209;-84
2023/03/25 04:55:50;;;;;;;3.43;1.40;;;7.20;99.90;;;;;;5014714;28;20177;-84
2023/03/25 04:58:16;;;;;;;2.63;1.70;;;7.20;99.90;;;;;;5014579;28;20198;-84
2023/03/25 05:00:50;;;;;;;1.73;1.30;;;7.20;99.90;;;;;;5014213;28;20182;-84
2023/03/25 05:03:22;;;;;;;3.23;1.20;;;7.20;99.90;;;;;;5014533;28;20554;-84
2023/03/25 05:05:51;;;;;;;1.97;1.40;;;7.30;99.90;;;;;;5032439;28;20170;-84
2023/03/25 05:08:17;;;;;;;2.57;1.53;;;7.20;99.90;;;;;;5014502;28;20192;-84
2023/03/25 05:10:43;;;;;;;3.00;1.50;;;7.30;99.90;;;;;;5013926;28;20163;-84
2023/03/25 05:13:11;;;;;;;3.47;1.40;;;7.30;99.90;;;;;;5014275;28;20177;-84
2023/03/25 05:15:40;;;;;;;1.67;1.50;;;7.20;99.90;;;;;;5014419;28;20212;-84
2023/03/25 05:18:12;;;;;;;2.13;1.33;;;7.20;99.90;;;;;;5014260;28;20197;-84
2023/03/25 05:20:40;;;;;;;2.07;1.30;;;7.20;99.90;;;;;;5031719;28;20166;-84
2023/03/25 05:23:11;;;;;;;1.93;1.40;;;7.20;99.90;;;;;;5014562;28;20274;-84
2023/03/25 05:25:38;;;;;;;4.17;1.80;;;7.20;99.90;;;;;;5014864;28;20186;-84
2023/03/25 05:28:04;;;;;;;2.27;1.50;;;7.20;99.90;;;;;;5014591;28;20771;-83
2023/03/25 05:30:31;;;;;;;2.07;1.27;;;7.20;99.90;;;;;;5032094;28;20228;-85
2023/03/25 05:32:58;;;;;;;1.93;1.37;;;7.10;99.90;;;;;;5032392;28;20178;-84
2023/03/25 05:35:25;;;;;;;3.77;1.40;;;7.10;99.90;;;;;;5031416;28;20219;-84
2023/03/25 05:37:51;;;;;;;1.93;1.30;;;7.10;99.90;;;;;;5033739;28;20240;-79
2023/03/25 05:40:17;;;;;;;2.53;1.67;;;7.00;99.90;;;;;;5032441;28;20220;-80
2023/03/25 05:42:47;;;;;;;1.73;1.20;;;7.20;99.90;;;;;;5015569;28;20174;-82
2023/03/25 05:45:16;;;;;;;1.30;1.20;;;7.10;99.90;;;;;;5033003;28;20269;-83
2023/03/25 05:47:43;;;;;;;1.50;1.20;;;7.10;99.90;;;;;;5015823;28;20215;-80
2023/03/25 05:50:09;;;;;;;3.40;1.30;;;7.10;99.90;;;;;;5036878;28;20187;-80
2023/03/25 05:52:35;;;;;;;3.00;1.30;;;7.00;99.90;;;;;;5054751;28;20177;-80
2023/03/25 05:55:02;;;;;;;1.73;1.20;;;6.90;99.90;;;;;;5055477;28;20204;-80
2023/03/25 05:57:28;;;;;;;2.17;1.20;;;6.90;99.90;;;;;;5039463;28;20172;-81
2023/03/25 05:59:54;;;;;;;2.57;1.20;;;6.90;99.90;;;;;;5059245;28;20264;-80
2023/03/25 06:02:20;;;;;;;1.10;0.90;;;6.90;99.90;;;;;;5041762;28;20165;-80
2023/03/25 06:04:50;;;;;;;1.03;0.90;;;6.90;99.90;;;;;;5042016;28;20192;-80
2023/03/25 06:07:18;;;;;;;1.20;1.10;;;6.90;99.90;;;;;;5059931;28;20265;-80
2023/03/25 06:09:45;;;;;;;1.20;1.10;;;6.90;99.90;;;;;;5058493;28;20258;-81
2023/03/25 06:12:19;;;;;;;1.93;1.17;;;6.90;99.90;;;;;;5040926;28;20266;-81
2023/03/25 06:14:45;;;;;;;1.80;1.23;;;6.90;99.90;;;;;;5038678;28;20203;-85
2023/03/25 06:17:12;;;;;;;2.33;1.40;;;6.90;99.90;;;;;;5055897;28;20176;-85
2023/03/25 06:19:38;;;;;;;2.47;1.40;;;6.90;99.90;;;;;;5037336;28;20191;-84
2023/03/25 06:22:08;;;;;;;1.80;1.50;;;7.00;99.90;;;;;;5038118;28;20179;-84
2023/03/25 06:24:39;;;;;;;3.57;1.40;;;6.90;99.90;;;;;;5055831;28;20203;-84
2023/03/25 06:27:13;;;;;;;1.97;1.43;;;7.00;99.90;;;;;;5054568;28;20179;-86
2023/03/25 06:29:42;;;;;;;1.50;1.40;;;7.00;99.90;;;;;;5038462;28;20173;-84
2023/03/25 06:32:10;;;;;;;2.47;1.50;;;7.00;99.90;;;;;;5037905;28;20646;-83
2023/03/25 06:34:37;;;;;;;1.83;1.53;;;6.90;99.90;;;;;;5055674;28;20207;-86
2023/03/25 06:37:03;;;;;;;2.10;1.40;;;7.00;99.90;;;;;;5055135;28;20238;-83
2023/03/25 06:39:30;;;;;;;1.93;1.40;;;7.00;99.90;;;;;;5038170;28;20197;-82
2023/03/25 06:41:57;;;;;;;2.77;1.40;;;7.00;99.90;;;;;;5036330;28;20526;-83
2023/03/25 06:44:23;;;;;;;1.83;1.30;;;7.10;99.90;;;;;;5055207;28;20180;-82
2023/03/25 06:46:48;;;;;;;2.03;1.40;;;7.10;99.90;;;;;;5037931;28;20182;-84
2023/03/25 06:49:14;;;;;;;2.80;1.53;;;7.10;99.90;;;;;;5054302;28;20215;-84
2023/03/25 06:51:39;;;;;;;3.17;1.30;;;7.10;99.90;;;;;;5035983;28;20175;-86
2023/03/25 06:54:05;;;;;;;2.70;1.50;;;7.10;99.90;;;;;;5036248;28;20676;-84
2023/03/25 06:56:30;;;;;;;3.43;1.40;;;7.30;99.90;;;;;;5036335;28;20200;-84
2023/03/25 06:58:56;;;;;;;2.03;1.40;;;7.20;99.90;;;;;;5054102;28;20227;-85
2023/03/25 07:01:22;;;;;;;3.50;1.27;;;7.20;99.90;;;;;;5023136;28;20242;-85
2023/03/25 07:03:47;;;;;;;2.47;1.30;;;7.20;99.90;;;;;;5033961;28;20182;-83
2023/03/25 07:06:16;;;;;;;1.50;1.30;;;7.20;99.90;;;;;;5034265;28;20267;-83
2023/03/25 07:08:41;;;;;;;2.37;1.30;;;7.10;99.90;;;;;;5034524;28;20193;-85
2023/03/25 07:11:07;;;;;;;4.40;1.37;;;7.10;99.90;;;;;;5016068;28;20183;-84
2023/03/25 07:13:33;;;;;;;2.17;1.20;;;7.10;99.90;;;;;;5016687;28;20171;-84
2023/03/25 07:15:59;;;;;;;4.00;1.60;;;7.10;99.90;;;;;;5034491;28;20186;-84
2023/03/25 07:18:25;;;;;;;3.80;1.20;;;7.20;99.90;;;;;;5016442;28;20200;-85
2023/03/25 07:20:51;;;;;;;2.13;1.23;;;7.30;99.90;;;;;;5034633;28;20261;-86
2023/03/25 07:23:17;;;;;;;3.53;1.20;;;7.30;99.90;;;;;;5016300;28;20180;-88
2023/03/25 07:25:42;;;;;;;2.67;1.50;;;7.30;99.90;;;;;;5016742;28;20177;-84
2023/03/25 07:28:08;;;;;;;1.27;1.10;;;7.40;99.90;;;;;;5016980;28;20232;-83
2023/03/25 07:30:34;;;;;;;2.07;1.20;;;7.40;99.90;;;;;;5034051;28;20232;-84
2023/03/25 07:33:00;;;;;;;3.10;1.77;;;7.40;99.90;;;;;;5016601;28;20181;-84
2023/03/25 07:35:25;;;;;;;2.73;1.27;;;7.40;99.90;;;;;;5016435;28;20691;-85
2023/03/25 07:37:51;;;;;;;2.57;1.30;;;7.40;99.90;;;;;;5016290;28;20194;-85
2023/03/25 07:40:17;;;;;;;3.83;1.40;;;7.50;99.90;;;;;;5015802;28;20177;-82
2023/03/25 07:42:43;;;;;;;3.43;1.53;;;7.50;99.90;;;;;;5016291;28;20261;-82
2023/03/25 07:45:09;;;;;;;2.43;1.40;;;7.60;99.90;;;;;;5033822;28;20633;-85
2023/03/25 07:47:35;;;;;;;1.07;0.97;;;7.70;99.90;;;;;;5015737;28;20195;-84
2023/03/25 07:50:01;;;;;;;2.17;1.40;;;7.60;99.90;;;;;;5015730;28;20192;-84
2023/03/25 07:52:27;;;;;;;1.60;1.20;;;7.60;99.90;;;;;;5033605;28;20259;-84
2023/03/25 07:54:53;;;;;;;2.90;1.50;;;7.60;99.90;;;;;;5015311;28;20280;-84
2023/03/25 07:57:18;;;;;;;2.47;1.50;;;7.60;99.90;;;;;;5033042;28;20173;-85
2023/03/25 07:59:44;;;;;;;2.50;1.50;;;7.70;99.90;;;;;;5015981;28;20180;-79
2023/03/25 08:02:13;;;;;;;3.60;1.43;;;7.70;99.90;;;;;;5015897;28;20177;-82
2023/03/25 08:04:39;;;;;;;3.30;1.30;;;7.70;99.90;;;;;;5017445;28;20182;-82
2023/03/25 08:07:05;;;;;;;2.63;1.23;;;7.70;99.90;;;;;;5015365;28;20177;-83
2023/03/25 08:09:31;;;;;;;2.27;1.20;;;7.70;99.90;;;;;;5033213;28;20296;-83
2023/03/25 08:11:56;;;;;;;2.17;1.10;;;7.80;99.90;;;;;;5014687;28;20223;-82
2023/03/25 08:14:22;;;;;;;1.53;1.03;;;7.90;99.90;;;;;;5014988;28;20202;-83
2023/03/25 08:16:47;;;;;;;2.53;1.20;;;7.90;99.90;;;;;;5015473;28;20275;-82
2023/03/25 08:19:13;;;;;;;1.90;1.00;;;7.90;99.90;;;;;;5008706;28;20201;-85
2023/03/25 08:21:39;;;;;;;3.03;1.47;;;7.90;99.90;;;;;;5030432;28;20178;-82
2023/03/25 08:24:05;;;;;;;1.60;1.20;;;8.00;99.90;;;;;;5014749;28;20174;-81
2023/03/25 08:26:32;;;;;;;2.43;1.10;;;8.10;99.90;;;;;;5014772;28;20264;-82
2023/03/25 08:28:58;;;;;;;1.00;0.90;;;8.00;99.90;;;;;;5032880;28;20194;-82
2023/03/25 08:31:25;;;;;;;1.27;0.97;;;8.00;99.90;;;;;;5014142;28;20178;-84
2023/03/25 08:33:51;;;;;;;1.83;1.30;;;8.00;99.90;;;;;;5013956;28;20256;-82
2023/03/25 08:36:22;;;;;;;2.87;1.10;;;8.00;99.90;;;;;;5040367;28;20268;-83
2023/03/25 08:38:48;;;;;;;3.87;1.20;;;8.00;99.90;;;;;;5014495;28;20187;-82
2023/03/25 08:41:14;;;;;;;2.50;1.33;;;8.00;99.90;;;;;;5013870;28;20657;-85
2023/03/25 08:43:39;;;;;;;3.97;1.13;;;8.00;99.90;;;;;;5033011;28;20279;-83
2023/03/25 08:46:06;;;;;;;2.97;1.13;;;8.00;99.90;;;;;;5014960;28;20316;-82
2023/03/25 08:48:31;;;;;;;3.53;1.07;;;8.10;99.90;;;;;;5077080;22;20226;-84
2023/03/25 08:50:57;;;;;;;3.33;1.10;;;8.10;99.90;;;;;;5033487;28;20174;-85
2023/03/25 08:53:23;;;;;;;3.80;1.30;;;8.20;99.90;;;;;;5036619;28;20591;-85
2023/03/25 08:55:54;;;;;;;3.10;1.30;;;8.30;99.90;;;;;;5034173;28;20265;-84
2023/03/25 08:58:21;;;;;;;3.07;1.20;;;8.30;99.90;;;;;;5033715;28;20256;-86
2023/03/25 09:00:53;;;;;;;3.73;1.20;;;8.30;99.90;;;;;;5035183;28;20170;-84
2023/03/25 09:03:20;;;;;;;3.37;1.27;;;8.40;99.90;;;;;;5040186;28;20181;-84
2023/03/25 09:05:46;;;;;;;4.03;1.50;;;8.40;99.90;;;;;;5037857;28;20255;-83
2023/03/25 09:08:11;;;;;;;3.10;1.67;;;8.40;99.90;;;;;;5036769;28;20203;-83
2023/03/25 09:10:37;;;;;;;3.93;1.30;;;8.30;99.90;;;;;;5036307;28;20182;-82
2023/03/25 09:13:02;;;;;;;2.63;1.33;;;8.30;99.90;;;;;;5038199;28;20179;-83
2023/03/25 09:15:28;;;;;;;6.70;1.43;;;8.30;99.90;;;;;;5032249;28;20643;-82
2023/03/25 09:17:54;;;;;;;5.10;1.33;;;8.30;99.90;;;;;;5032030;28;20241;-82
2023/03/25 09:20:19;;;;;;;4.20;1.50;;;8.40;99.90;;;;;;5031175;28;20547;-84
2023/03/25 09:22:45;;;;;;;3.83;1.20;;;8.70;99.90;;;;;;5032990;28;20175;-82
2023/03/25 09:25:10;;;;;;;3.10;1.53;;;9.00;99.90;;;;;;5033077;28;20657;-84
2023/03/25 09:27:37;;;;;;;3.47;1.40;;;9.00;99.90;;;;;;5031747;28;20186;-84
2023/03/25 09:30:04;;;;;;;4.70;1.40;;;9.00;99.90;;;;;;5032140;28;20198;-84
2023/03/25 09:32:30;;;;;;;4.50;1.43;;;8.90;99.90;;;;;;5032324;28;20178;-86
2023/03/25 09:34:55;;;;;;;3.63;1.40;;;8.90;99.90;;;;;;5035375;28;20294;-83
2023/03/25 09:37:21;;;;;;;5.03;1.60;;;8.90;99.90;;;;;;5036217;28;20175;-81
2023/03/25 09:39:47;;;;;;;3.27;1.50;;;8.90;99.90;;;;;;5035752;28;20224;-87
2023/03/25 09:42:25;;;;;;;3.47;1.37;;;9.00;99.90;;;;;;5035237;28;20266;-84
2023/03/25 09:44:54;;;;;;;5.13;1.97;;;8.90;99.90;;;;;;5035578;28;20611;-86
2023/03/25 09:47:22;;;;;;;3.97;1.70;;;9.00;99.90;;;;;;5036237;28;20187;-81
2023/03/25 09:49:52;;;;;;;4.47;1.70;;;8.90;99.90;;;;;;5034797;28;20302;-83
2023/03/25 09:52:25;;;;;;;3.87;1.40;;;9.10;99.90;;;;;;5036236;28;20186;-82
2023/03/25 09:54:56;;;;;;;4.33;1.70;;;9.30;99.90;;;;;;5037653;28;20212;-82
2023/03/25 09:57:27;;;;;;;4.93;1.70;;;9.20;99.90;;;;;;5037553;28;20183;-82
2023/03/25 09:59:55;;;;;;;5.20;1.40;;;9.40;99.90;;;;;;5031519;28;20200;-79
2023/03/25 10:02:26;;;;;;;5.80;1.50;;;9.10;99.90;;;;;;5027589;28;20179;-84
2023/03/25 10:05:14;;;;;;;5.17;1.60;;;9.20;99.90;;;;;;5036135;28;20172;-84
2023/03/25 10:08:03;;;;;;;4.37;1.50;;;9.00;99.90;;;;;;5030341;28;20567;-84
2023/03/25 10:10:45;;;;;;;3.53;1.50;;;8.90;99.90;;;;;;5034170;28;20187;-85
2023/03/25 10:13:23;;;;;;;4.20;1.60;;;8.90;99.90;;;;;;5034607;28;20705;-86
2023/03/25 10:15:55;;;;;;;4.03;1.57;;;9.10;99.90;;;;;;5034631;28;20266;-85
2023/03/25 10:18:35;;;;;;;6.33;1.97;;;9.10;99.90;;;;;;5034685;28;20284;-85
2023/03/25 10:21:23;;;;;;;4.80;1.60;;;9.10;99.90;;;;;;5034403;28;20604;-85
2023/03/25 10:24:15;;;;;;;4.73;1.60;;;9.10;99.90;;;;;;5036039;28;20197;-85
2023/03/25 10:27:02;;;;;;;7.07;1.60;;;9.00;99.90;;;;;;5036579;28;20217;-85
2023/03/25 10:29:58;;;;;;;3.07;1.43;;;9.00;99.90;;;;;;5036300;28;20358;-85
2023/03/25 10:32:29;;;;;;;4.23;1.70;;;8.90;99.90;;;;;;5034559;28;20186;-86
2023/03/25 10:34:56;;;;;;;5.17;1.80;;;8.80;99.90;;;;;;5032786;28;20203;-85
2023/03/25 10:37:30;;;;;;;1.27;1.17;;;8.80;99.90;;;;;;5033829;28;20261;-81
2023/03/25 10:40:11;;;;;;;0.67;0.53;;;8.30;99.90;;;;;;5034284;28;20201;-84
2023/03/25 10:42:43;;;;;;;0.43;0.37;;;6.90;99.90;;;;;;5034881;28;20174;-84
2023/03/25 10:45:14;;;;;;;0.50;0.30;;;5.60;99.90;;;;;;5035139;28;20178;-85
2023/03/25 10:47:43;;;;;;;0.20;0.20;;;5.10;99.90;;;;;;5036755;28;20253;-85
2023/03/25 10:50:19;;;;;;;0.13;0.13;;;4.80;99.90;;;;;;5033606;28;20194;-86
2023/03/25 10:52:47;;;;;;;0.47;0.20;;;4.70;99.90;;;;;;5032383;28;20264;-86
2023/03/25 10:55:22;;;;;;;0.40;0.40;;;4.80;99.90;;;;;;5031017;28;20210;-86
2023/03/25 10:57:49;;;;;;;0.47;0.40;;;4.90;99.90;;;;;;5036940;28;20181;-83
2023/03/25 11:00:19;;;;;;;3.30;0.90;;;5.00;99.90;;;;;;5035507;28;20204;-84
2023/03/25 11:02:46;;;;;;;0.50;0.50;;;5.10;99.90;;;;;;5035965;28;20181;-85
2023/03/25 11:05:17;;;;;;;0.60;0.50;;;5.20;99.90;;;;;;5036705;28;20174;-85
2023/03/25 11:08:05;;;;;;;0.50;0.40;;;5.20;99.90;;;;;;5036347;28;20174;-85
2023/03/25 11:10:33;;;;;;;1.67;0.63;;;5.20;99.90;;;;;;5035926;28;20236;-84
2023/03/25 11:13:03;;;;;;;0.50;0.40;;;5.10;99.90;;;;;;5037342;28;20199;-84
2023/03/25 11:15:29;;;;;;;0.53;0.37;;;5.00;99.90;;;;;;5034956;28;20213;-83
2023/03/25 11:18:00;;;;;;;1.03;0.70;;;4.80;99.90;;;;;;5034793;28;20179;-86
2023/03/25 11:20:44;;;;;;;0.57;0.50;;;4.80;99.90;;;;;;5034117;28;20261;-85
2023/03/25 11:23:34;;;;;;;2.40;0.57;;;4.80;99.90;;;;;;5034310;28;20162;-85
2023/03/25 11:26:22;;;;;;;0.40;0.40;;;5.10;99.90;;;;;;5030800;28;20206;-81
2023/03/25 11:28:54;;;;;;;0.97;0.63;;;5.40;99.90;;;;;;5039229;28;20194;-82
2023/03/25 11:31:26;;;;;;;0.43;0.40;;;5.60;99.90;;;;;;5038953;28;20661;-82
2023/03/25 11:34:10;;;;;;;0.63;0.50;;;5.80;99.90;;;;;;5040038;28;20210;-82
2023/03/25 11:36:59;;;;;;;1.00;0.60;;;6.40;99.90;;;;;;5039081;28;20180;-82
2023/03/25 11:39:28;;;;;;;1.07;0.60;;;6.90;99.90;;;;;;5031767;28;20216;-83
2023/03/25 11:41:54;;;;;;;2.43;0.83;;;7.40;99.90;;;;;;5038922;28;20648;-82
2023/03/25 11:44:29;;;;;;;1.50;0.63;;;8.00;99.90;;;;;;5039044;28;20231;-82
2023/03/25 11:47:00;;;;;;;1.27;0.63;;;8.40;99.90;;;;;;5040423;28;20536;-82
2023/03/25 11:49:28;;;;;;;1.13;0.63;;;8.70;99.90;;;;;;5040367;28;20248;-82
2023/03/25 11:52:05;;;;;;;0.70;0.60;;;8.70;99.90;;;;;;5040884;28;20170;-82
2023/03/25 11:54:33;;;;;;;0.73;0.67;;;8.80;99.90;;;;;;5042198;28;20198;-82
2023/03/25 11:56:59;;;;;;;0.70;0.60;;;8.70;99.90;;;;;;5041242;28;20217;-82
2023/03/25 11:59:34;;;;;;;1.57;0.70;;;8.50;99.90;;;;;;5042018;28;20191;-82
2023/03/25 12:02:02;;;;;;;1.83;0.67;;;8.30;99.90;;;;;;5041355;28;20170;-82
2023/03/25 12:04:28;;;;;;;0.63;0.60;;;8.20;99.90;;;;;;5042586;28;20182;-83
2023/03/25 12:07:00;;;;;;;1.57;1.00;;;8.10;99.90;;;;;;5040574;28;20185;-82
2023/03/25 12:09:28;;;;;;;1.53;0.87;;;8.20;99.90;;;;;;5038987;28;20197;-79
2023/03/25 12:11:57;;;;;;;1.17;0.70;;;8.30;99.90;;;;;;5037706;28;20234;-84
2023/03/25 12:14:29;;;;;;;3.43;0.70;;;8.20;99.90;;;;;;5038113;28;20676;-83
2023/03/25 12:17:07;;;;;;;1.37;0.80;;;8.10;99.90;;;;;;5038664;28;20171;-82
2023/03/25 12:20:14;;;;;;;1.57;0.70;;;8.20;99.90;;;;;;5039566;28;20190;-82
2023/03/25 12:22:42;;;;;;;1.80;0.70;;;8.30;99.90;;;;;;5020004;28;20178;-82
2023/03/25 12:25:08;;;;;;;2.73;0.90;;;8.40;99.90;;;;;;5040043;28;20185;-82
2023/03/25 12:28:11;;;;;;;1.40;0.87;;;8.30;99.90;;;;;;5038465;28;20183;-81
2023/03/25 12:30:43;;;;;;;1.70;0.80;;;8.40;99.90;;;;;;5038459;28;20202;-82
2023/03/25 12:33:33;;;;;;;0.87;0.70;;;8.80;99.90;;;;;;5038796;28;20186;-80
2023/03/25 12:36:02;;;;;;;0.60;0.50;;;9.00;99.90;;;;;;5038636;28;20202;-82
2023/03/25 12:38:46;;;;;;;1.07;0.70;;;8.90;99.90;;;;;;5040425;28;20578;-82
2023/03/25 12:41:36;;;;;;;1.60;0.73;;;9.20;99.90;;;;;;5038528;28;20180;-82
2023/03/25 12:44:11;;;;;;;1.10;1.00;;;9.60;99.90;;;;;;5038907;28;20228;-82
2023/03/25 12:46:55;;;;;;;2.40;0.83;;;9.90;99.90;;;;;;5038541;28;20180;-81
2023/03/25 12:49:51;;;;;;;3.07;0.90;;;10.30;99.90;;;;;;5039820;28;20217;-82
2023/03/25 12:52:53;;;;;;;1.17;0.60;;;10.80;99.90;;;;;;5040151;28;20540;-82
2023/03/25 12:55:50;;;;;;;1.13;0.53;;;10.90;99.90;;;;;;5038898;28;20206;-81
2023/03/25 12:58:34;;;;;;;1.13;0.70;;;11.20;99.90;;;;;;5040936;28;20680;-80
2023/03/25 13:01:09;;;;;;;1.57;0.80;;;11.50;99.90;;;;;;5039685;28;20170;-81
2023/03/25 13:03:55;;;;;;;1.33;0.77;;;11.50;99.90;;;;;;5041062;28;20169;-83
2023/03/25 13:06:51;;;;;;;1.20;0.87;;;11.20;99.90;;;;;;5039949;28;20182;-81
2023/03/25 13:09:26;;;;;;;1.80;0.80;;;11.00;99.90;;;;;;5043762;28;20204;-82
2023/03/25 13:12:18;;;;;;;2.47;0.87;;;10.90;99.90;;;;;;5043274;28;20264;-81
2023/03/25 13:15:08;;;;;;;2.80;1.27;;;10.80;99.90;;;;;;5021166;28;20202;-81
2023/03/25 13:17:40;;;;;;;1.67;0.80;;;10.80;99.90;;;;;;5044298;28;20172;-81
2023/03/25 13:20:09;;;;;;;2.73;1.20;;;10.90;99.90;;;;;;5043245;28;20193;-82
2023/03/25 13:22:42;;;;;;;2.23;1.00;;;10.90;99.90;;;;;;5043609;28;20249;-81